Time;durP1;ratioP1;P1;durP2;ratioP2;P2;SDS_P1;SDS_P2;PMS_P1;PMS_P2;Temp;Humidity;BMP_temperature;BMP_pressure;BME280_temperature;BME280_humidity;BME280_pressure;Samples;Min_cycle;Max_cycle;Signal;HPM_P1;HPM_P2
2023/01/15 00:00:40;;;;;;;2.17;0.30;;;19.80;60.90;;;;;;5054972;28;20516;-61
2023/01/15 00:03:05;;;;;;;1.25;0.30;;;19.80;60.90;;;;;;5055569;28;20440;-61
2023/01/15 00:05:31;;;;;;;2.42;0.40;;;19.80;60.90;;;;;;5055224;28;20447;-61
2023/01/15 00:07:56;;;;;;;2.78;0.70;;;19.80;60.90;;;;;;5054620;28;20071;-61
2023/01/15 00:10:22;;;;;;;0.70;0.35;;;19.80;60.80;;;;;;5054996;28;20041;-61
2023/01/15 00:12:47;;;;;;;3.70;0.40;;;19.80;60.80;;;;;;5054885;28;20408;-61
2023/01/15 00:15:13;;;;;;;3.33;0.60;;;19.80;60.80;;;;;;5054361;28;20098;-61
2023/01/15 00:17:38;;;;;;;1.42;0.30;;;19.80;60.80;;;;;;5055263;28;20504;-62
2023/01/15 00:20:04;;;;;;;1.10;0.40;;;19.70;60.70;;;;;;5055231;28;20080;-61
2023/01/15 00:22:30;;;;;;;1.83;0.40;;;19.70;60.80;;;;;;5054135;28;20044;-61
2023/01/15 00:27:39;;;;;;;1.23;0.35;;;19.70;60.70;;;;;;5074461;28;20044;-61
2023/01/15 00:30:07;;;;;;;2.00;0.40;;;19.70;60.70;;;;;;5075092;28;20368;-61
2023/01/15 00:32:32;;;;;;;1.47;0.40;;;19.70;60.70;;;;;;5074429;28;20395;-61
2023/01/15 00:34:58;;;;;;;2.90;0.50;;;19.70;60.70;;;;;;5074087;28;20066;-61
2023/01/15 00:37:24;;;;;;;2.85;0.60;;;19.70;60.70;;;;;;5074615;28;20558;-61
2023/01/15 00:39:49;;;;;;;1.85;0.43;;;19.70;60.70;;;;;;5067820;28;20040;-61
2023/01/15 00:42:16;;;;;;;1.92;0.50;;;19.70;60.70;;;;;;5053944;28;20500;-61
2023/01/15 00:44:42;;;;;;;1.60;0.30;;;19.60;60.60;;;;;;5054072;28;20048;-61
2023/01/15 00:47:13;;;;;;;3.15;0.50;;;19.60;60.60;;;;;;5054713;28;20052;-61
2023/01/15 00:49:38;;;;;;;2.40;0.40;;;19.60;60.60;;;;;;5053792;28;20044;-61
2023/01/15 00:52:04;;;;;;;2.80;0.50;;;19.60;60.60;;;;;;5054613;28;20072;-61
2023/01/15 00:54:32;;;;;;;2.97;0.50;;;19.60;60.60;;;;;;5052895;28;20473;-61
2023/01/15 00:56:57;;;;;;;1.70;0.47;;;19.60;60.50;;;;;;5054115;28;20111;-61
2023/01/15 00:59:23;;;;;;;3.25;0.50;;;19.60;60.50;;;;;;5054196;28;20455;-61
2023/01/15 01:01:49;;;;;;;0.63;0.30;;;19.60;60.50;;;;;;5054598;28;20033;-61
2023/01/15 01:04:14;;;;;;;2.53;0.50;;;19.60;60.50;;;;;;5053227;28;20392;-61
2023/01/15 01:06:40;;;;;;;1.90;0.50;;;19.60;60.40;;;;;;5054670;28;20118;-61
2023/01/15 01:09:05;;;;;;;2.92;0.52;;;19.50;60.40;;;;;;5054101;28;20393;-62
2023/01/15 01:11:33;;;;;;;2.20;0.50;;;19.50;60.30;;;;;;5053369;28;20042;-62
2023/01/15 01:14:00;;;;;;;1.55;0.45;;;19.50;60.30;;;;;;5054021;28;20053;-61
2023/01/15 01:16:30;;;;;;;2.13;0.40;;;19.50;61.00;;;;;;5052891;28;20053;-61
2023/01/15 01:18:57;;;;;;;2.53;0.40;;;19.50;60.30;;;;;;5054049;28;20049;-61
2023/01/15 01:21:23;;;;;;;2.63;0.43;;;19.50;60.30;;;;;;5053945;28;20550;-61
2023/01/15 01:23:48;;;;;;;4.35;0.40;;;19.50;60.30;;;;;;5053567;28;20037;-62
2023/01/15 01:26:14;;;;;;;1.73;0.40;;;19.50;60.30;;;;;;5053449;28;20515;-61
2023/01/15 01:28:40;;;;;;;2.83;0.50;;;19.50;60.30;;;;;;5054190;28;20167;-61
2023/01/15 01:31:06;;;;;;;2.50;0.40;;;19.50;60.30;;;;;;5053372;28;20041;-61
2023/01/15 01:33:32;;;;;;;2.15;0.40;;;19.50;60.30;;;;;;5053455;28;20094;-61
2023/01/15 01:35:57;;;;;;;2.28;0.55;;;19.50;60.30;;;;;;5053833;28;20127;-61
2023/01/15 01:38:23;;;;;;;1.83;0.30;;;19.40;60.20;;;;;;5047427;28;20042;-61
2023/01/15 01:40:48;;;;;;;2.00;0.47;;;19.40;60.20;;;;;;5053447;28;20049;-61
2023/01/15 01:43:23;;;;;;;4.07;0.55;;;19.40;60.20;;;;;;5053201;28;20064;-61
2023/01/15 01:45:49;;;;;;;3.85;0.45;;;19.40;60.20;;;;;;5051926;28;20060;-61
2023/01/15 01:48:16;;;;;;;3.08;0.60;;;19.40;60.20;;;;;;5053139;28;20439;-61
2023/01/15 01:50:41;;;;;;;1.10;0.50;;;19.40;60.20;;;;;;5053629;28;20037;-61
2023/01/15 01:53:13;;;;;;;2.65;0.63;;;19.40;60.20;;;;;;5051566;28;20094;-61
2023/01/15 01:55:39;;;;;;;2.83;0.50;;;19.40;60.10;;;;;;5052162;28;20045;-61
2023/01/15 01:58:05;;;;;;;0.80;0.38;;;19.30;60.10;;;;;;5052336;28;20047;-61
2023/01/15 02:00:31;;;;;;;3.05;0.35;;;19.30;60.70;;;;;;5051082;28;20041;-61
2023/01/15 02:02:57;;;;;;;3.25;0.50;;;19.30;60.10;;;;;;5053559;28;20033;-61
2023/01/15 02:05:34;;;;;;;2.78;0.50;;;19.30;60.10;;;;;;5051905;28;20041;-61
2023/01/15 02:08:00;;;;;;;2.70;0.60;;;19.40;60.10;;;;;;5051304;28;20549;-61
2023/01/15 02:10:25;;;;;;;2.55;0.50;;;19.40;60.20;;;;;;5052585;28;20120;-61
2023/01/15 02:12:58;;;;;;;2.05;0.55;;;19.30;60.10;;;;;;5051896;28;20179;-61
2023/01/15 02:15:39;;;;;;;3.53;0.43;;;19.30;60.00;;;;;;5035514;28;20465;-61
2023/01/15 02:18:14;;;;;;;1.50;0.43;;;19.30;60.00;;;;;;5051870;28;20055;-61
2023/01/15 02:20:45;;;;;;;3.88;0.50;;;19.30;60.00;;;;;;5050905;28;20395;-61
2023/01/15 02:23:37;;;;;;;3.53;0.60;;;19.30;60.00;;;;;;5051552;28;20045;-61
2023/01/15 02:26:21;;;;;;;3.35;0.52;;;19.30;59.90;;;;;;5051509;28;20120;-61
2023/01/15 02:28:47;;;;;;;3.00;0.60;;;19.30;60.00;;;;;;5050764;28;20052;-61
2023/01/15 02:31:25;;;;;;;4.10;0.60;;;19.30;60.00;;;;;;5051544;28;20055;-61
2023/01/15 02:34:02;;;;;;;2.35;0.40;;;19.20;59.80;;;;;;5050795;28;20073;-61
2023/01/15 02:36:29;;;;;;;1.75;0.63;;;19.20;59.80;;;;;;5051218;28;20044;-61
2023/01/15 02:38:55;;;;;;;3.28;0.80;;;19.20;59.90;;;;;;5050564;28;20118;-61
2023/01/15 02:41:23;;;;;;;2.38;0.50;;;19.20;59.80;;;;;;5050663;28;20049;-61
2023/01/15 02:43:50;;;;;;;3.45;0.40;;;19.20;59.80;;;;;;5051043;28;20041;-61
2023/01/15 02:46:16;;;;;;;3.28;0.50;;;19.20;59.80;;;;;;5052165;28;20189;-61
2023/01/15 02:48:43;;;;;;;1.02;0.40;;;19.20;59.80;;;;;;5050806;28;20051;-61
2023/01/15 02:51:14;;;;;;;2.42;0.55;;;19.20;59.80;;;;;;5051065;28;20048;-61
2023/01/15 02:53:41;;;;;;;2.60;0.65;;;19.20;59.70;;;;;;5051342;28;20147;-61
2023/01/15 02:56:10;;;;;;;1.55;0.22;;;19.20;59.80;;;;;;5045363;28;20076;-61
2023/01/15 02:58:37;;;;;;;3.38;0.50;;;19.20;59.70;;;;;;5051398;28;20041;-61
2023/01/15 03:01:06;;;;;;;2.63;0.55;;;19.10;60.30;;;;;;5047118;28;20053;-61
2023/01/15 03:03:41;;;;;;;2.30;0.50;;;19.10;59.70;;;;;;5029019;28;20092;-61
2023/01/15 03:06:13;;;;;;;2.58;0.32;;;19.10;59.60;;;;;;5030932;28;20475;-61
2023/01/15 03:08:38;;;;;;;4.10;0.60;;;19.10;59.70;;;;;;5030570;28;20049;-61
2023/01/15 03:11:04;;;;;;;2.05;0.50;;;19.10;59.70;;;;;;5030337;28;20402;-61
2023/01/15 03:13:44;;;;;;;2.10;0.40;;;19.10;59.70;;;;;;5031395;28;20162;-61
2023/01/15 03:16:36;;;;;;;3.25;0.60;;;19.10;59.60;;;;;;5031297;28;20116;-61
2023/01/15 03:19:14;;;;;;;2.45;0.80;;;19.10;59.50;;;;;;5031385;28;20033;-61
2023/01/15 03:22:01;;;;;;;2.83;0.70;;;19.10;59.50;;;;;;5032237;28;20038;-61
2023/01/15 03:24:32;;;;;;;1.42;0.50;;;19.10;59.50;;;;;;5029655;28;20037;-61
2023/01/15 03:26:58;;;;;;;2.78;0.40;;;19.10;59.50;;;;;;5031192;28;20050;-61
2023/01/15 03:29:26;;;;;;;3.80;0.60;;;19.10;59.50;;;;;;5030955;28;20489;-61
2023/01/15 03:31:51;;;;;;;2.55;0.57;;;19.10;59.50;;;;;;5030544;28;20048;-61
2023/01/15 03:34:17;;;;;;;2.15;0.45;;;19.10;59.50;;;;;;5031596;28;20389;-61
2023/01/15 03:36:42;;;;;;;3.08;0.40;;;19.10;59.50;;;;;;5031961;28;20041;-61
2023/01/15 03:39:08;;;;;;;2.22;0.40;;;19.10;59.50;;;;;;5031172;28;20042;-61
2023/01/15 03:41:53;;;;;;;4.68;0.60;;;19.10;59.40;;;;;;5032276;28;20124;-61
2023/01/15 03:44:38;;;;;;;2.95;0.63;;;19.10;59.50;;;;;;5030717;28;20045;-61
2023/01/15 03:47:04;;;;;;;1.67;0.50;;;19.10;59.50;;;;;;5032064;28;20033;-61
2023/01/15 03:49:53;;;;;;;1.70;0.50;;;19.10;59.40;;;;;;5045044;28;20369;-61
2023/01/15 03:52:28;;;;;;;2.70;0.52;;;19.10;59.40;;;;;;5049794;28;20041;-61
2023/01/15 03:55:08;;;;;;;3.97;0.73;;;19.10;59.40;;;;;;5050782;28;20049;-61
2023/01/15 03:57:36;;;;;;;2.05;0.70;;;19.10;59.40;;;;;;5050199;28;20381;-61
2023/01/15 04:00:06;;;;;;;;;;;19.10;59.30;;;;;;5049214;28;20056;-61
2023/01/15 04:02:31;;;;;;;2.03;0.50;;;19.10;59.40;;;;;;5051561;28;19966;-61
2023/01/15 04:04:57;;;;;;;2.58;0.55;;;19.10;59.30;;;;;;5050613;28;20045;-61
2023/01/15 04:07:23;;;;;;;2.08;0.50;;;19.10;59.30;;;;;;5049728;28;20029;-61
2023/01/15 04:09:48;;;;;;;4.47;0.85;;;19.10;59.20;;;;;;5047318;28;20041;-61
2023/01/15 04:12:14;;;;;;;2.20;0.50;;;19.10;59.20;;;;;;5050799;28;20043;-61
2023/01/15 04:14:39;;;;;;;3.03;0.60;;;19.10;59.20;;;;;;5051624;28;20377;-61
2023/01/15 04:17:05;;;;;;;2.75;0.50;;;19.10;59.20;;;;;;5050356;28;20045;-61
2023/01/15 04:19:30;;;;;;;2.90;0.55;;;19.10;59.20;;;;;;5050422;28;20044;-61
2023/01/15 04:21:56;;;;;;;2.83;0.80;;;19.10;59.20;;;;;;5055116;28;20041;-61
2023/01/15 04:24:22;;;;;;;2.47;0.50;;;19.10;59.20;;;;;;5054995;28;20369;-61
2023/01/15 04:26:47;;;;;;;3.50;0.50;;;19.10;59.20;;;;;;5054274;28;20048;-60
2023/01/15 04:29:13;;;;;;;3.10;0.60;;;19.20;59.20;;;;;;5055102;28;20103;-61
2023/01/15 04:31:38;;;;;;;2.17;0.50;;;19.20;59.20;;;;;;5055352;28;20052;-61
2023/01/15 04:34:04;;;;;;;2.85;0.75;;;19.20;59.20;;;;;;5054126;28;20045;-61
2023/01/15 04:36:29;;;;;;;1.90;0.52;;;19.20;59.10;;;;;;5054849;28;20045;-61
2023/01/15 04:38:56;;;;;;;1.52;0.50;;;19.20;59.10;;;;;;5054466;28;20087;-61
2023/01/15 04:44:06;;;;;;;4.80;0.60;;;19.30;59.10;;;;;;5054327;28;20049;-61
2023/01/15 04:46:39;;;;;;;2.63;0.70;;;19.30;59.10;;;;;;5054320;28;20045;-61
2023/01/15 04:49:05;;;;;;;3.03;0.45;;;19.30;59.10;;;;;;5053166;28;20119;-61
2023/01/15 04:51:31;;;;;;;3.85;0.60;;;19.30;59.10;;;;;;5054237;28;20539;-61
2023/01/15 04:53:56;;;;;;;2.88;0.50;;;19.30;59.00;;;;;;5054329;28;20084;-61
2023/01/15 04:56:22;;;;;;;3.00;0.60;;;19.30;59.00;;;;;;5053535;28;20052;-61
2023/01/15 04:58:47;;;;;;;1.85;0.47;;;19.30;59.00;;;;;;5054494;28;20033;-61
2023/01/15 05:01:14;;;;;;;3.42;0.63;;;19.30;58.90;;;;;;5047858;28;20049;-61
2023/01/15 05:03:40;;;;;;;3.97;0.75;;;19.40;59.00;;;;;;5050816;28;20068;-61
2023/01/15 05:06:06;;;;;;;1.98;0.52;;;19.40;59.00;;;;;;5053804;28;20068;-61
2023/01/15 05:08:31;;;;;;;3.13;0.70;;;19.40;58.90;;;;;;5047683;28;20045;-61
2023/01/15 05:11:02;;;;;;;1.73;0.50;;;19.40;58.90;;;;;;5054165;28;20436;-61
2023/01/15 05:13:28;;;;;;;3.25;0.50;;;19.40;58.90;;;;;;5053840;28;20143;-61
2023/01/15 05:15:54;;;;;;;2.22;0.75;;;19.40;58.90;;;;;;5053737;28;20077;-61
2023/01/15 05:18:20;;;;;;;2.40;0.47;;;19.40;58.80;;;;;;5053690;28;20064;-61
2023/01/15 05:20:45;;;;;;;2.33;0.50;;;19.40;58.80;;;;;;5053855;28;20041;-61
2023/01/15 05:23:11;;;;;;;3.55;0.60;;;19.50;58.80;;;;;;5052196;28;20041;-61
2023/01/15 05:25:37;;;;;;;2.10;0.60;;;19.50;58.80;;;;;;5054097;28;20036;-61
2023/01/15 05:28:02;;;;;;;2.67;0.52;;;19.50;58.80;;;;;;5060855;28;20032;-61
2023/01/15 05:30:28;;;;;;;3.05;0.60;;;19.50;58.70;;;;;;5072613;28;20487;-61
2023/01/15 05:32:53;;;;;;;3.47;0.50;;;19.50;58.70;;;;;;5073615;28;20040;-61
2023/01/15 05:35:19;;;;;;;2.40;0.50;;;19.50;58.60;;;;;;5073338;28;20484;-61
2023/01/15 05:37:44;;;;;;;2.80;0.55;;;19.50;58.60;;;;;;5073030;28;20438;-61
2023/01/15 05:40:10;;;;;;;3.03;0.50;;;19.50;58.50;;;;;;5073365;28;20083;-61
2023/01/15 05:42:36;;;;;;;2.33;0.57;;;19.60;58.50;;;;;;5073568;28;20175;-61
2023/01/15 05:45:02;;;;;;;2.35;0.50;;;19.60;58.50;;;;;;5073043;28;20068;-61
2023/01/15 05:47:27;;;;;;;3.50;0.52;;;19.60;58.60;;;;;;5073260;28;20044;-60
2023/01/15 05:49:53;;;;;;;5.07;0.82;;;19.60;58.60;;;;;;5073376;28;20540;-61
2023/01/15 05:52:18;;;;;;;1.88;0.43;;;19.60;58.60;;;;;;5072556;28;20512;-61
2023/01/15 05:54:44;;;;;;;3.25;0.55;;;19.60;58.60;;;;;;5073279;28;20412;-60
2023/01/15 05:57:10;;;;;;;1.83;0.65;;;19.60;58.60;;;;;;5073140;28;20036;-61
2023/01/15 05:59:36;;;;;;;2.58;0.50;;;19.70;58.70;;;;;;5071283;28;20051;-60
2023/01/15 06:02:01;;;;;;;3.03;0.45;;;19.70;58.70;;;;;;5073286;28;20040;-60
2023/01/15 06:04:27;;;;;;;5.40;0.63;;;19.70;58.70;;;;;;5072861;28;20037;-61
2023/01/15 06:06:53;;;;;;;2.67;0.50;;;19.70;58.60;;;;;;5072717;28;20040;-61
2023/01/15 06:09:19;;;;;;;3.15;0.60;;;19.70;58.60;;;;;;5073011;28;20176;-60
2023/01/15 06:11:44;;;;;;;2.38;0.47;;;19.70;58.60;;;;;;5052500;28;20500;-61
2023/01/15 06:14:13;;;;;;;4.95;0.90;;;19.70;58.70;;;;;;5051703;28;20130;-60
2023/01/15 06:16:39;;;;;;;2.65;0.50;;;19.70;58.70;;;;;;5052958;28;20045;-61
2023/01/15 06:19:05;;;;;;;5.03;0.70;;;19.70;58.70;;;;;;5050758;28;20047;-61
2023/01/15 06:21:31;;;;;;;1.13;0.40;;;19.80;58.90;;;;;;5052931;28;20032;-61
2023/01/15 06:23:57;;;;;;;4.45;0.52;;;19.80;58.90;;;;;;5052624;28;20127;-61
2023/01/15 06:26:22;;;;;;;3.28;0.70;;;19.80;59.00;;;;;;5049520;28;20144;-61
2023/01/15 06:28:48;;;;;;;3.22;0.68;;;19.80;59.00;;;;;;5052959;28;20091;-60
2023/01/15 06:31:16;;;;;;;3.67;0.45;;;19.80;59.10;;;;;;5052473;28;20045;-60
2023/01/15 06:33:41;;;;;;;3.90;0.63;;;19.80;59.10;;;;;;5051750;28;20059;-61
2023/01/15 06:36:12;;;;;;;2.63;0.47;;;19.80;59.10;;;;;;5052912;28;20128;-60
2023/01/15 06:38:38;;;;;;;3.17;0.82;;;19.80;59.20;;;;;;5051452;28;20477;-60
2023/01/15 06:47:19;;;;;;;2.35;0.50;;;19.90;59.20;;;;;;5046843;28;20511;-60
2023/01/15 06:49:18;;;;;;;2.70;0.50;;;19.90;59.30;;;;;;5051785;28;20072;-61
2023/01/15 06:51:44;;;;;;;3.97;0.63;;;19.90;59.30;;;;;;5051627;28;20065;-60
2023/01/15 06:54:09;;;;;;;2.67;0.65;;;19.90;59.30;;;;;;5051195;28;20041;-60
2023/01/15 06:56:35;;;;;;;1.88;0.40;;;19.90;59.40;;;;;;5051389;28;20049;-60
2023/01/15 06:59:00;;;;;;;3.35;0.40;;;19.90;59.30;;;;;;5052393;28;20037;-60
2023/01/15 07:01:29;;;;;;;2.53;0.85;;;19.90;59.40;;;;;;5051430;28;20044;-60
2023/01/15 07:03:55;;;;;;;1.65;0.50;;;19.90;59.40;;;;;;5052241;28;20444;-60
2023/01/15 07:06:21;;;;;;;1.75;0.43;;;19.90;59.40;;;;;;5050957;28;20516;-60
2023/01/15 07:08:46;;;;;;;2.40;0.40;;;19.90;59.50;;;;;;5051198;28;20128;-60
2023/01/15 07:11:13;;;;;;;1.77;0.50;;;19.90;59.30;;;;;;5052231;28;20032;-60
2023/01/15 07:13:38;;;;;;;4.13;0.60;;;19.90;59.40;;;;;;5041840;28;20390;-60
2023/01/15 07:16:04;;;;;;;3.47;0.55;;;19.90;59.40;;;;;;5049161;28;20098;-60
2023/01/15 07:18:31;;;;;;;2.90;0.50;;;19.90;59.40;;;;;;5051105;28;20037;-60
2023/01/15 07:20:56;;;;;;;3.28;0.50;;;19.90;59.50;;;;;;5051463;28;20036;-60
2023/01/15 07:23:25;;;;;;;2.22;0.40;;;19.90;59.40;;;;;;5041361;28;20382;-60
2023/01/15 07:25:54;;;;;;;2.28;0.40;;;19.90;59.40;;;;;;5051662;28;20098;-61
2023/01/15 07:28:20;;;;;;;3.53;0.63;;;19.90;59.40;;;;;;5051574;28;20079;-62
2023/01/15 07:30:46;;;;;;;3.10;0.50;;;19.90;59.20;;;;;;5051262;28;20045;-64
2023/01/15 07:33:11;;;;;;;2.78;0.65;;;19.90;59.20;;;;;;5051806;28;20091;-63
2023/01/15 07:35:37;;;;;;;3.67;1.02;;;19.90;59.30;;;;;;5048417;28;20378;-61
2023/01/15 07:38:02;;;;;;;3.95;0.52;;;19.90;59.20;;;;;;5062240;28;20048;-63
2023/01/15 07:40:28;;;;;;;3.00;0.60;;;19.90;59.20;;;;;;5071259;28;20426;-62
2023/01/15 07:51:07;;;;;;;2.33;0.40;;;19.90;59.30;;;;;;5071028;28;20484;-62
2023/01/15 07:53:32;;;;;;;5.57;0.70;;;19.90;59.30;;;;;;5055927;28;20033;-61
2023/01/15 07:55:58;;;;;;;4.05;0.63;;;19.90;59.30;;;;;;5048502;28;20045;-63
2023/01/15 07:58:23;;;;;;;6.35;0.70;;;19.90;59.20;;;;;;5035484;28;20528;-62
2023/01/15 08:00:49;;;;;;;5.05;0.60;;;19.90;59.20;;;;;;5039438;28;20398;-62
2023/01/15 08:03:14;;;;;;;4.55;0.60;;;19.90;59.70;;;;;;5044364;28;20029;-62
2023/01/15 08:05:40;;;;;;;2.72;0.88;;;19.90;59.20;;;;;;5053572;28;20041;-62
2023/01/15 08:08:06;;;;;;;4.35;0.50;;;19.90;59.20;;;;;;5054910;28;20044;-62
2023/01/15 08:15:11;;;;;;;4.78;0.50;;;19.90;59.20;;;;;;5053311;28;20041;-62
2023/01/15 08:16:01;;;;;;;2.05;0.85;;;19.90;59.20;;;;;;5067223;28;20045;-62
2023/01/15 08:18:26;;;;;;;4.78;0.63;;;19.90;59.10;;;;;;5073185;28;20048;-62
2023/01/15 08:20:52;;;;;;;5.53;0.90;;;19.90;59.10;;;;;;5074654;28;20083;-62
2023/01/15 08:23:17;;;;;;;3.38;0.50;;;19.90;59.10;;;;;;5074817;28;20044;-62
2023/01/15 08:25:43;;;;;;;4.22;0.65;;;19.90;59.10;;;;;;5074187;28;20036;-62
2023/01/15 08:28:08;;;;;;;2.28;0.50;;;19.90;59.10;;;;;;5074622;28;20130;-62
2023/01/15 08:30:34;;;;;;;3.67;0.70;;;19.90;59.00;;;;;;5075237;28;20040;-61
2023/01/15 08:33:01;;;;;;;2.03;0.50;;;19.90;59.00;;;;;;5074143;28;20122;-62
2023/01/15 08:35:27;;;;;;;2.77;0.43;;;19.90;59.00;;;;;;5074523;28;20044;-62
2023/01/15 08:37:53;;;;;;;2.05;0.43;;;19.90;58.90;;;;;;5074959;28;20124;-62
2023/01/15 08:40:18;;;;;;;3.53;0.50;;;19.90;58.90;;;;;;5073677;28;20048;-62
2023/01/15 08:42:44;;;;;;;3.33;0.60;;;19.90;58.80;;;;;;5074709;28;20076;-62
2023/01/15 08:45:10;;;;;;;2.55;0.40;;;19.90;58.80;;;;;;5074440;28;20040;-61
2023/01/15 08:47:36;;;;;;;1.67;0.40;;;19.90;58.70;;;;;;5074096;28;20052;-61
2023/01/15 08:50:03;;;;;;;2.42;0.70;;;19.90;58.70;;;;;;5074420;28;20373;-61
2023/01/15 08:52:29;;;;;;;3.80;0.50;;;20.00;58.70;;;;;;5074466;28;20052;-61
2023/01/15 08:54:54;;;;;;;2.10;0.50;;;19.90;58.60;;;;;;5073765;28;20053;-60
2023/01/15 08:57:20;;;;;;;1.83;0.45;;;20.00;58.70;;;;;;5074146;28;20102;-60
2023/01/15 08:59:46;;;;;;;5.05;0.70;;;20.00;58.60;;;;;;5074442;28;20058;-60
2023/01/15 09:02:13;;;;;;;3.60;0.60;;;20.00;58.60;;;;;;5073166;28;20044;-63
2023/01/15 09:04:38;;;;;;;2.33;0.50;;;20.00;58.50;;;;;;5061042;28;20045;-60
2023/01/15 09:07:04;;;;;;;3.38;0.70;;;20.00;58.50;;;;;;5053771;28;20143;-60
2023/01/15 09:09:29;;;;;;;3.25;0.70;;;20.00;58.40;;;;;;5053572;28;20409;-60
2023/01/15 09:11:55;;;;;;;2.63;0.40;;;20.00;58.40;;;;;;5053981;28;20091;-60
2023/01/15 09:14:20;;;;;;;3.38;0.50;;;20.00;58.30;;;;;;5053227;28;20056;-61
2023/01/15 09:16:46;;;;;;;2.38;0.50;;;20.00;58.30;;;;;;5061563;28;20051;-61
2023/01/15 09:19:11;;;;;;;2.05;0.47;;;20.00;58.20;;;;;;5073546;28;20131;-62
2023/01/15 09:21:37;;;;;;;3.10;0.60;;;20.00;58.20;;;;;;5074089;28;20473;-61
2023/01/15 09:24:03;;;;;;;1.15;0.43;;;20.00;58.20;;;;;;5073002;28;20047;-62
2023/01/15 09:26:33;;;;;;;3.22;0.65;;;20.00;58.10;;;;;;5073557;28;20492;-62
2023/01/15 09:28:59;;;;;;;4.15;0.63;;;20.00;58.10;;;;;;5072975;28;20075;-61
2023/01/15 09:31:24;;;;;;;4.32;0.70;;;20.00;58.00;;;;;;5073737;28;20079;-62
2023/01/15 09:33:50;;;;;;;4.68;0.85;;;20.00;58.00;;;;;;5073755;28;20048;-62
2023/01/15 09:36:22;;;;;;;3.15;0.50;;;20.00;58.00;;;;;;5072836;28;20064;-61
2023/01/15 09:38:48;;;;;;;2.70;0.60;;;20.00;58.00;;;;;;5072324;28;20044;-62
2023/01/15 09:44:36;;;;;;;2.50;0.45;;;19.90;57.70;;;;;;5071737;28;20041;-61
2023/01/15 09:47:03;;;;;;;3.58;0.40;;;19.90;57.70;;;;;;5050239;28;20056;-62
2023/01/15 09:49:51;;;;;;;3.15;0.70;;;19.90;57.70;;;;;;5071705;28;20102;-62
2023/01/15 09:52:25;;;;;;;;;;;19.90;57.60;;;;;;5072748;28;20041;-61
2023/01/15 09:54:54;;;;;;;2.50;0.50;;;19.90;57.70;;;;;;5051544;28;20364;-61
2023/01/15 09:57:20;;;;;;;3.08;0.80;;;19.90;57.70;;;;;;5049498;28;20118;-61
2023/01/15 09:59:47;;;;;;;1.83;0.50;;;19.90;57.70;;;;;;5052313;28;20480;-62
2023/01/15 10:02:21;;;;;;;2.72;0.50;;;19.90;57.60;;;;;;5051731;28;20112;-61
2023/01/15 10:05:19;;;;;;;2.35;0.60;;;19.90;57.60;;;;;;5052066;28;20392;-61
2023/01/15 10:07:58;;;;;;;2.58;0.55;;;19.90;57.60;;;;;;5051328;28;20059;-62
2023/01/15 10:10:28;;;;;;;2.13;0.52;;;19.90;57.60;;;;;;5052871;28;20045;-62
2023/01/15 10:12:57;;;;;;;2.85;0.40;;;19.90;57.70;;;;;;5050727;28;20052;-62
2023/01/15 10:15:43;;;;;;;2.65;0.47;;;19.90;57.60;;;;;;5051413;28;20045;-62
2023/01/15 10:18:25;;;;;;;2.63;0.50;;;19.90;57.60;;;;;;5049207;28;20448;-63
2023/01/15 10:21:09;;;;;;;1.65;0.45;;;19.90;57.40;;;;;;5053038;28;20048;-63
2023/01/15 10:23:36;;;;;;;1.63;0.40;;;19.90;57.50;;;;;;5053055;28;20053;-63
2023/01/15 10:26:34;;;;;;;3.22;0.55;;;19.90;57.50;;;;;;5052042;28;20393;-62
2023/01/15 10:29:02;;;;;;;2.42;0.50;;;19.90;57.40;;;;;;5051299;28;20420;-62
2023/01/15 10:31:46;;;;;;;3.72;0.52;;;19.90;57.50;;;;;;5052297;28;20461;-62
2023/01/15 10:34:24;;;;;;;2.90;0.65;;;19.90;57.40;;;;;;5051910;28;20147;-62
2023/01/15 10:37:00;;;;;;;2.80;0.60;;;19.90;57.40;;;;;;5048115;28;20059;-61
2023/01/15 10:39:55;;;;;;;2.40;0.38;;;19.90;57.40;;;;;;5058050;28;20148;-62
2023/01/15 10:42:39;;;;;;;2.97;0.40;;;19.80;57.20;;;;;;5039421;28;20041;-64
2023/01/15 10:45:23;;;;;;;1.80;0.35;;;19.80;57.30;;;;;;5045470;28;20098;-62
2023/01/15 10:47:52;;;;;;;2.75;0.57;;;19.80;57.30;;;;;;5044770;28;20040;-62
2023/01/15 10:50:23;;;;;;;4.55;0.60;;;19.90;57.30;;;;;;5056777;28;20045;-61
2023/01/15 10:53:06;;;;;;;5.20;0.82;;;19.80;57.30;;;;;;5054983;28;20109;-62
2023/01/15 10:55:46;;;;;;;4.45;0.73;;;19.90;57.40;;;;;;5050002;28;20037;-62
2023/01/15 10:58:29;;;;;;;3.72;0.57;;;19.90;57.50;;;;;;5045854;28;20075;-63
2023/01/15 11:01:01;;;;;;;3.75;0.60;;;19.90;57.70;;;;;;5050401;28;20041;-63
2023/01/15 11:03:37;;;;;;;3.28;0.70;;;19.90;57.70;;;;;;5050216;28;20083;-63
2023/01/15 11:06:04;;;;;;;4.22;0.90;;;19.90;57.70;;;;;;5052005;28;20509;-61
2023/01/15 11:08:30;;;;;;;3.55;0.60;;;19.90;57.90;;;;;;5050876;28;20039;-62
2023/01/15 11:10:57;;;;;;;6.22;0.50;;;19.90;57.90;;;;;;5051202;28;20136;-62
2023/01/15 11:21:45;;;;;;;1.85;0.40;;;19.90;57.80;;;;;;5048513;28;20045;-62
2023/01/15 11:24:15;;;;;;;7.10;1.02;;;19.90;57.90;;;;;;5051549;28;20049;-62
2023/01/15 11:26:41;;;;;;;2.72;0.82;;;19.90;57.80;;;;;;5049880;28;20052;-62
2023/01/15 11:29:14;;;;;;;5.30;0.50;;;19.90;57.80;;;;;;5049811;28;20041;-63
2023/01/15 11:31:40;;;;;;;4.22;0.75;;;19.90;57.70;;;;;;5054213;28;20041;-61
2023/01/15 11:34:14;;;;;;;4.53;0.63;;;19.90;57.70;;;;;;5055831;28;20055;-62
2023/01/15 11:36:40;;;;;;;4.28;0.40;;;19.90;57.70;;;;;;5054098;28;20063;-62
2023/01/15 11:39:23;;;;;;;4.07;0.50;;;19.90;57.60;;;;;;5056258;28;20480;-62
2023/01/15 11:52:52;;;;;;;4.68;0.50;;;20.00;57.70;;;;;;5055362;28;20516;-63
2023/01/15 11:55:22;;;;;;;4.05;0.57;;;20.00;57.70;;;;;;5054372;28;20041;-63
2023/01/15 11:57:48;;;;;;;3.60;0.57;;;20.00;57.70;;;;;;5053689;28;20055;-62
2023/01/15 12:00:24;;;;;;;4.80;0.63;;;20.00;57.70;;;;;;5053868;28;20033;-62
2023/01/15 12:02:51;;;;;;;4.03;0.60;;;20.00;57.70;;;;;;5053792;28;20051;-62
2023/01/15 12:05:21;;;;;;;3.42;0.68;;;20.00;57.70;;;;;;5052292;28;20549;-62
2023/01/15 12:07:48;;;;;;;4.07;0.60;;;20.10;57.70;;;;;;5054183;28;20057;-62
2023/01/15 12:13:26;;;;;;;3.00;0.40;;;20.10;57.80;;;;;;5054286;28;20455;-62
2023/01/15 12:16:01;;;;;;;3.67;0.85;;;20.10;57.80;;;;;;5054448;28;20044;-62
2023/01/15 12:18:30;;;;;;;3.08;0.63;;;20.10;57.80;;;;;;5053341;28;20481;-62
2023/01/15 12:21:34;;;;;;;2.58;0.57;;;20.10;57.70;;;;;;5054463;28;20253;-62
2023/01/15 12:24:18;;;;;;;3.17;0.60;;;20.10;57.70;;;;;;5054666;28;20040;-62
2023/01/15 12:26:49;;;;;;;3.42;0.93;;;20.10;57.70;;;;;;5055167;28;20084;-62
2023/01/15 12:29:20;;;;;;;3.13;0.60;;;20.20;58.40;;;;;;5054979;28;20068;-62
2023/01/15 12:31:52;;;;;;;14.20;0.93;;;20.20;57.70;;;;;;5051374;28;20048;-61
2023/01/15 12:34:27;;;;;;;2.75;0.70;;;20.20;57.70;;;;;;5053565;28;20056;-62
2023/01/15 12:37:19;;;;;;;1.92;0.60;;;20.20;57.70;;;;;;5053980;28;20059;-62
2023/01/15 12:40:05;;;;;;;3.28;0.57;;;20.20;57.70;;;;;;5048076;28;20079;-62
2023/01/15 12:45:17;;;;;;;6.25;0.88;;;20.20;57.80;;;;;;5049688;28;20044;-63
2023/01/15 12:47:48;;;;;;;5.10;0.95;;;20.20;57.80;;;;;;5035197;28;20052;-63
2023/01/15 12:50:28;;;;;;;6.32;1.23;;;20.20;58.00;;;;;;5053319;28;20075;-64
2023/01/15 12:53:18;;;;;;;7.53;1.77;;;20.20;58.00;;;;;;5050350;28;20052;-64
2023/01/15 12:56:05;;;;;;;4.75;0.98;;;20.30;58.20;;;;;;5054228;28;20041;-65
2023/01/15 12:58:57;;;;;;;4.05;0.90;;;20.30;58.20;;;;;;5053069;28;20472;-65
2023/01/15 13:01:28;;;;;;;4.68;0.95;;;20.30;58.20;;;;;;5053491;28;20060;-65
2023/01/15 13:04:17;;;;;;;5.50;1.02;;;20.30;58.20;;;;;;5053803;28;20056;-64
2023/01/15 13:06:55;;;;;;;6.90;1.00;;;20.30;58.30;;;;;;5052397;28;20120;-63
2023/01/15 13:09:30;;;;;;;;;;;20.30;58.30;;;;;;5031253;28;20081;-65
2023/01/15 13:11:56;;;;;;;6.45;0.98;;;20.30;58.50;;;;;;5033093;28;20241;-64
2023/01/15 13:14:22;;;;;;;5.32;1.08;;;20.30;58.30;;;;;;5040494;28;20059;-64
2023/01/15 13:16:57;;;;;;;5.60;1.20;;;20.30;58.40;;;;;;5054356;28;20503;-64
2023/01/15 13:19:32;;;;;;;5.50;0.90;;;20.30;58.50;;;;;;5052367;28;20489;-64
2023/01/15 13:22:00;;;;;;;4.40;1.00;;;20.30;58.50;;;;;;5053287;28;20045;-64
2023/01/15 13:24:47;;;;;;;4.65;1.00;;;20.40;58.60;;;;;;5052679;28;20041;-64
2023/01/15 13:27:38;;;;;;;3.75;0.73;;;20.40;58.70;;;;;;5053847;28;20049;-64
2023/01/15 13:30:30;;;;;;;4.55;1.08;;;20.40;58.70;;;;;;5053252;28;20543;-63
2023/01/15 13:32:59;;;;;;;10.45;1.13;;;20.40;58.70;;;;;;5052753;28;20049;-64
2023/01/15 13:35:36;;;;;;;4.35;1.02;;;20.40;58.70;;;;;;5052690;28;20088;-64
2023/01/15 13:38:03;;;;;;;3.38;0.70;;;20.40;58.70;;;;;;5052505;28;20136;-63
2023/01/15 13:40:39;;;;;;;4.55;1.13;;;20.40;58.70;;;;;;5052430;28;20049;-64
2023/01/15 13:43:06;;;;;;;5.78;1.17;;;20.40;58.50;;;;;;5051439;28;20582;-64
2023/01/15 13:45:39;;;;;;;6.32;1.10;;;20.40;58.40;;;;;;5052068;28;20037;-64
2023/01/15 13:48:14;;;;;;;4.13;1.10;;;20.40;59.10;;;;;;5052987;28;20378;-64
2023/01/15 13:50:56;;;;;;;4.88;0.95;;;20.40;58.40;;;;;;5051589;28;20408;-63